Time;durP1;ratioP1;P1;durP2;ratioP2;P2;SDS_P1;SDS_P2;PMS_P1;PMS_P2;Temp;Humidity;BMP_temperature;BMP_pressure;BME280_temperature;BME280_humidity;BME280_pressure;Samples;Min_cycle;Max_cycle;Signal;HPM_P1;HPM_P2
2022/04/30 00:02:17;;;;;;;0.70;0.70;;;4.30;99.90;;;;;;5016002;28;20128;-73
2022/04/30 00:04:45;;;;;;;0.73;0.73;;;4.30;99.90;;;;;;5032094;28;20490;-73
2022/04/30 00:07:16;;;;;;;0.60;0.60;;;4.40;99.90;;;;;;5030616;28;20431;-73
2022/04/30 00:09:42;;;;;;;0.57;0.57;;;4.40;99.90;;;;;;5032505;28;20500;-73
2022/04/30 00:12:09;;;;;;;0.70;0.70;;;4.50;99.90;;;;;;5031955;28;20048;-73
2022/04/30 00:14:35;;;;;;;0.70;0.70;;;4.50;99.90;;;;;;5015709;28;20045;-73
2022/04/30 00:17:01;;;;;;;0.60;0.60;;;4.50;99.90;;;;;;5031931;28;20033;-73
2022/04/30 00:19:28;;;;;;;0.60;0.60;;;4.50;99.90;;;;;;5065373;28;20651;-73
2022/04/30 00:21:54;;;;;;;0.60;0.60;;;4.60;99.90;;;;;;5015787;28;20044;-73
2022/04/30 00:24:19;;;;;;;0.68;0.68;;;4.60;99.90;;;;;;5023329;28;20040;-73
2022/04/30 00:26:45;;;;;;;0.70;0.70;;;4.60;99.90;;;;;;5029582;28;20049;-73
2022/04/30 00:29:11;;;;;;;0.77;0.77;;;4.60;99.90;;;;;;5025383;28;20218;-73
2022/04/30 00:31:38;;;;;;;1.00;1.00;;;4.60;99.90;;;;;;5006401;28;20124;-73
2022/04/30 00:34:04;;;;;;;1.55;1.55;;;4.60;99.90;;;;;;5033974;28;20041;-73
2022/04/30 00:36:30;;;;;;;1.67;1.65;;;4.70;99.90;;;;;;5015511;28;20041;-73
2022/04/30 00:38:56;;;;;;;3.03;2.72;;;4.70;99.90;;;;;;5010515;28;20037;-73
2022/04/30 00:41:23;;;;;;;2.00;1.05;;;4.70;99.90;;;;;;5039623;28;20601;-73
2022/04/30 00:43:53;;;;;;;1.67;1.63;;;4.70;99.90;;;;;;5061488;28;20377;-73
2022/04/30 00:46:21;;;;;;;2.90;2.65;;;4.80;99.90;;;;;;5032345;28;20131;-73
2022/04/30 00:48:47;;;;;;;3.47;1.55;;;4.80;99.90;;;;;;5027929;28;20053;-73
2022/04/30 00:51:18;;;;;;;0.70;0.70;;;4.80;99.90;;;;;;5021663;28;20059;-73
2022/04/30 00:53:47;;;;;;;1.15;1.15;;;4.80;99.90;;;;;;5010436;28;20129;-73
2022/04/30 00:56:16;;;;;;;0.75;0.75;;;4.80;99.90;;;;;;5005235;28;20445;-73
2022/04/30 00:58:47;;;;;;;1.25;1.25;;;4.70;99.90;;;;;;5030958;28;20091;-73
2022/04/30 01:01:14;;;;;;;0.80;0.80;;;4.70;99.90;;;;;;5011103;28;20036;-73
2022/04/30 01:03:40;;;;;;;0.80;0.80;;;4.70;99.90;;;;;;5012727;28;20404;-73
2022/04/30 01:06:06;;;;;;;0.90;0.90;;;4.70;99.90;;;;;;5042959;28;20139;-73
2022/04/30 01:08:32;;;;;;;0.60;0.60;;;4.60;99.90;;;;;;5026716;28;20045;-73
2022/04/30 01:11:03;;;;;;;1.17;1.17;;;4.50;99.90;;;;;;5020685;28;20045;-73
2022/04/30 01:13:33;;;;;;;1.02;1.02;;;4.50;99.90;;;;;;5042596;28;20056;-73
2022/04/30 01:16:04;;;;;;;1.15;1.15;;;4.60;99.90;;;;;;5011298;28;20065;-73
2022/04/30 01:18:36;;;;;;;1.38;1.38;;;4.60;99.90;;;;;;5012110;28;20037;-73
2022/04/30 01:21:07;;;;;;;0.70;0.70;;;4.60;99.90;;;;;;5005849;28;20483;-73
2022/04/30 01:23:33;;;;;;;0.80;0.80;;;4.60;99.90;;;;;;5029960;28;20041;-73
2022/04/30 01:26:01;;;;;;;0.80;0.80;;;4.60;99.90;;;;;;5035086;28;20048;-73
2022/04/30 01:28:28;;;;;;;0.77;0.77;;;4.60;99.90;;;;;;5014379;28;20044;-73
2022/04/30 01:30:54;;;;;;;2.92;1.95;;;4.60;99.90;;;;;;5027887;28;20131;-73
2022/04/30 01:38:48;;;;;;;1.65;1.38;;;4.70;99.90;;;;;;5046790;28;20045;-73
2022/04/30 01:41:13;;;;;;;0.90;0.90;;;4.70;99.90;;;;;;5013075;28;20118;-73
2022/04/30 01:43:39;;;;;;;0.90;0.90;;;4.70;99.90;;;;;;5046928;28;20064;-73
2022/04/30 01:46:05;;;;;;;9.75;4.30;;;4.70;99.90;;;;;;5046181;28;20121;-73
2022/04/30 01:48:32;;;;;;;0.88;0.88;;;4.70;99.90;;;;;;5014299;28;20033;-73
2022/04/30 01:50:59;;;;;;;2.58;2.45;;;4.70;99.90;;;;;;5015219;28;20053;-73
2022/04/30 01:53:25;;;;;;;0.80;0.80;;;4.70;99.90;;;;;;4998670;28;20124;-73
2022/04/30 01:55:51;;;;;;;2.75;2.60;;;4.70;99.90;;;;;;5047195;28;20124;-73
2022/04/30 01:58:17;;;;;;;1.20;1.20;;;4.70;99.90;;;;;;5030683;28;20045;-73
2022/04/30 02:00:43;;;;;;;0.90;0.90;;;4.70;99.90;;;;;;5013380;28;20037;-73
2022/04/30 02:03:10;;;;;;;1.00;1.00;;;4.70;99.90;;;;;;5036534;28;20103;-73
2022/04/30 02:05:37;;;;;;;1.00;1.00;;;4.70;99.90;;;;;;5027443;28;20128;-73
2022/04/30 02:08:12;;;;;;;4.82;2.42;;;4.70;99.90;;;;;;5046387;28;20045;-73
2022/04/30 02:10:42;;;;;;;1.42;1.33;;;4.70;99.90;;;;;;5019358;28;20041;-73
2022/04/30 02:13:09;;;;;;;0.80;0.80;;;4.70;99.90;;;;;;5029769;28;20392;-73
2022/04/30 02:15:39;;;;;;;1.00;1.00;;;4.70;99.90;;;;;;5013422;28;20435;-73
2022/04/30 02:18:06;;;;;;;1.00;1.00;;;4.60;99.90;;;;;;5028428;28;20045;-74
2022/04/30 02:20:34;;;;;;;0.90;0.90;;;4.60;99.90;;;;;;5008154;28;20151;-73
2022/04/30 02:23:05;;;;;;;0.80;0.80;;;4.60;99.90;;;;;;5043593;28;20048;-73
2022/04/30 02:25:31;;;;;;;0.85;0.85;;;4.60;99.90;;;;;;4997765;28;20459;-73
2022/04/30 02:28:00;;;;;;;0.93;0.93;;;4.60;99.90;;;;;;5021170;28;20041;-73
2022/04/30 02:30:27;;;;;;;0.80;0.80;;;4.60;99.90;;;;;;5016389;28;20435;-73
2022/04/30 02:32:56;;;;;;;0.70;0.70;;;4.50;99.90;;;;;;5026283;28;20043;-73
2022/04/30 02:35:24;;;;;;;0.77;0.77;;;4.40;99.90;;;;;;5012507;28;20060;-73
2022/04/30 02:37:52;;;;;;;0.80;0.80;;;4.40;99.90;;;;;;5009110;28;20037;-73
2022/04/30 02:40:20;;;;;;;0.80;0.80;;;4.40;99.90;;;;;;4997546;28;20072;-73
2022/04/30 02:42:46;;;;;;;0.80;0.80;;;4.30;99.90;;;;;;5009739;28;20394;-73
2022/04/30 02:45:15;;;;;;;0.85;0.85;;;4.30;99.90;;;;;;5030092;28;20403;-73
2022/04/30 02:47:45;;;;;;;1.60;1.50;;;4.30;99.90;;;;;;5016213;28;20392;-73
2022/04/30 02:50:13;;;;;;;0.80;0.80;;;4.20;99.90;;;;;;4998464;28;20065;-74
2022/04/30 02:52:41;;;;;;;1.27;1.27;;;4.20;99.90;;;;;;5033799;28;20080;-73
2022/04/30 02:55:07;;;;;;;2.58;1.23;;;4.30;99.90;;;;;;5047169;28;20078;-73
2022/04/30 02:59:53;;;;;;;0.80;0.80;;;4.30;99.90;;;;;;4997889;28;20076;-74
2022/04/30 03:00:39;;;;;;;0.82;0.82;;;4.30;99.90;;;;;;5025864;28;20048;-73
2022/04/30 03:03:09;;;;;;;1.00;1.00;;;4.30;99.90;;;;;;5014728;28;20128;-73
2022/04/30 03:05:35;;;;;;;1.00;1.00;;;4.30;99.90;;;;;;5023128;28;20055;-73
2022/04/30 03:08:06;;;;;;;1.35;1.35;;;4.20;99.90;;;;;;5014639;28;20033;-73
2022/04/30 03:10:32;;;;;;;0.93;0.93;;;4.20;99.90;;;;;;5033779;28;20069;-73
2022/04/30 03:12:57;;;;;;;0.90;0.90;;;4.20;99.90;;;;;;5032369;28;20044;-73
2022/04/30 03:15:25;;;;;;;0.88;0.88;;;4.10;99.90;;;;;;5033050;28;20517;-73
2022/04/30 03:23:19;;;;;;;1.08;1.08;;;4.00;99.90;;;;;;5031478;28;20385;-73
2022/04/30 03:25:44;;;;;;;0.90;0.90;;;4.00;99.90;;;;;;5032984;28;20052;-73
2022/04/30 03:28:11;;;;;;;0.73;0.73;;;4.00;99.90;;;;;;5031175;28;20090;-73
2022/04/30 03:30:36;;;;;;;0.90;0.90;;;4.00;99.90;;;;;;5029020;28;20515;-73
2022/04/30 03:33:02;;;;;;;0.80;0.80;;;3.90;99.90;;;;;;5015366;28;20163;-73
2022/04/30 03:35:28;;;;;;;2.22;2.13;;;3.90;99.90;;;;;;5049030;28;20404;-73
2022/04/30 03:37:54;;;;;;;0.90;0.90;;;3.90;99.90;;;;;;5012857;28;20773;-73
2022/04/30 03:40:22;;;;;;;1.20;1.20;;;3.90;99.90;;;;;;5017137;28;20057;-73
2022/04/30 03:42:48;;;;;;;0.80;0.80;;;3.90;99.90;;;;;;5046777;28;20090;-73
2022/04/30 03:45:14;;;;;;;0.98;0.98;;;4.00;99.90;;;;;;5015589;28;20041;-73
2022/04/30 03:47:40;;;;;;;0.88;0.88;;;4.00;99.90;;;;;;5049323;28;20041;-73
2022/04/30 03:50:07;;;;;;;0.90;0.90;;;3.90;99.90;;;;;;5015545;28;20183;-73
2022/04/30 03:52:33;;;;;;;0.80;0.80;;;3.90;99.90;;;;;;5016730;28;20095;-73
2022/04/30 03:54:59;;;;;;;0.90;0.90;;;3.90;99.90;;;;;;5018928;28;20107;-73
2022/04/30 03:57:25;;;;;;;0.90;0.90;;;3.90;99.90;;;;;;5012586;28;20128;-73
2022/04/30 03:59:51;;;;;;;0.90;0.90;;;3.90;99.90;;;;;;5028591;28;20040;-73
2022/04/30 04:02:18;;;;;;;0.90;0.90;;;3.90;99.90;;;;;;5032040;28;20492;-73
2022/04/30 04:04:45;;;;;;;1.00;1.00;;;4.00;99.90;;;;;;5048454;28;20037;-73
2022/04/30 04:07:10;;;;;;;0.90;0.90;;;4.00;99.90;;;;;;5038754;28;20063;-73
2022/04/30 04:09:36;;;;;;;1.00;1.00;;;4.00;99.90;;;;;;5033189;28;20045;-73
2022/04/30 04:12:02;;;;;;;0.88;0.88;;;4.00;99.90;;;;;;5018540;28;20045;-73
2022/04/30 04:19:56;;;;;;;0.80;0.80;;;4.10;99.90;;;;;;5029141;28;20049;-73
2022/04/30 04:22:21;;;;;;;0.68;0.68;;;4.10;99.90;;;;;;5030908;28;20053;-73
2022/04/30 04:27:31;;;;;;;0.85;0.85;;;4.20;99.90;;;;;;5031410;28;20132;-73
2022/04/30 04:29:57;;;;;;;0.90;0.90;;;4.20;99.90;;;;;;5014505;28;20163;-73
2022/04/30 04:32:24;;;;;;;0.77;0.77;;;4.30;99.90;;;;;;5014722;28;20036;-74
2022/04/30 04:34:49;;;;;;;0.65;0.65;;;4.30;99.90;;;;;;5014297;28;20028;-73
2022/04/30 04:37:15;;;;;;;0.80;0.80;;;4.30;99.90;;;;;;5016227;28;20059;-73
2022/04/30 04:39:42;;;;;;;0.80;0.80;;;4.40;99.90;;;;;;5031948;28;20096;-73
2022/04/30 04:42:07;;;;;;;0.90;0.90;;;4.50;99.90;;;;;;5035670;28;20122;-73
2022/04/30 04:44:34;;;;;;;0.90;0.90;;;4.50;99.90;;;;;;5031495;28;20041;-73
2022/04/30 04:47:00;;;;;;;0.90;0.90;;;4.60;99.90;;;;;;5013858;28;20118;-73
2022/04/30 04:49:27;;;;;;;0.70;0.70;;;4.70;99.90;;;;;;5030812;28;20049;-73
2022/04/30 04:51:53;;;;;;;0.93;0.93;;;4.80;99.90;;;;;;5046586;28;20132;-73
2022/04/30 04:54:18;;;;;;;0.63;0.63;;;4.90;99.90;;;;;;5030690;28;20123;-73
2022/04/30 04:56:44;;;;;;;0.88;0.88;;;4.90;99.90;;;;;;5014616;28;20033;-73
2022/04/30 04:59:10;;;;;;;0.80;0.80;;;5.00;99.90;;;;;;5047488;28;20041;-73
2022/04/30 05:01:36;;;;;;;0.70;0.70;;;5.10;99.90;;;;;;5030933;28;20044;-73
2022/04/30 05:04:02;;;;;;;0.90;0.90;;;5.20;99.90;;;;;;5029985;28;20053;-73
2022/04/30 05:06:28;;;;;;;0.98;0.98;;;5.30;99.90;;;;;;5030383;28;20029;-73
2022/04/30 05:08:54;;;;;;;1.13;1.13;;;5.40;99.90;;;;;;5034180;28;20062;-73
2022/04/30 05:11:19;;;;;;;0.77;0.77;;;5.40;99.90;;;;;;5025807;28;20037;-73
2022/04/30 05:13:45;;;;;;;0.73;0.73;;;5.50;99.90;;;;;;5030067;28;20071;-73
2022/04/30 05:16:11;;;;;;;1.15;1.15;;;5.60;99.90;;;;;;5035097;28;20118;-74
2022/04/30 05:18:37;;;;;;;0.80;0.80;;;5.70;99.90;;;;;;5038322;28;20097;-73
2022/04/30 05:21:03;;;;;;;0.63;0.63;;;5.80;99.90;;;;;;5015413;28;20076;-73
2022/04/30 05:23:28;;;;;;;0.50;0.50;;;5.90;99.90;;;;;;5028529;28;20072;-73
2022/04/30 05:25:54;;;;;;;0.55;0.55;;;6.00;99.90;;;;;;5021452;28;20037;-73
2022/04/30 05:28:20;;;;;;;0.90;0.90;;;6.10;99.90;;;;;;5010360;28;20048;-73
2022/04/30 05:30:46;;;;;;;0.60;0.60;;;6.20;99.90;;;;;;5037271;28;20049;-74
2022/04/30 05:33:11;;;;;;;0.80;0.80;;;6.20;99.90;;;;;;5014617;28;20090;-73
2022/04/30 05:35:37;;;;;;;0.80;0.80;;;6.40;99.90;;;;;;5028391;28;20044;-74
2022/04/30 05:38:03;;;;;;;0.85;0.85;;;6.50;99.90;;;;;;5028439;28;20045;-74
2022/04/30 05:40:29;;;;;;;0.93;0.93;;;6.60;99.90;;;;;;5013524;28;20073;-74
2022/04/30 05:42:54;;;;;;;0.55;0.55;;;6.70;99.90;;;;;;5010515;28;20051;-74
2022/04/30 05:45:20;;;;;;;0.90;0.90;;;6.90;99.90;;;;;;5045189;28;20135;-74
2022/04/30 05:47:45;;;;;;;0.70;0.70;;;7.00;99.90;;;;;;5030540;28;20083;-74
2022/04/30 05:50:11;;;;;;;0.70;0.70;;;7.10;99.90;;;;;;5009136;28;20053;-74
2022/04/30 05:52:37;;;;;;;0.70;0.70;;;7.30;99.90;;;;;;5029022;28;20040;-74
2022/04/30 05:55:04;;;;;;;0.95;0.95;;;7.50;99.90;;;;;;5027484;28;20083;-74
2022/04/30 05:57:31;;;;;;;0.50;0.50;;;7.60;99.90;;;;;;5014070;28;20041;-74
2022/04/30 05:59:57;;;;;;;0.60;0.60;;;7.80;99.90;;;;;;5046342;28;20068;-74
2022/04/30 06:02:23;;;;;;;0.60;0.60;;;8.00;99.90;;;;;;5037394;28;20051;-74
2022/04/30 06:04:49;;;;;;;0.85;0.85;;;8.10;99.90;;;;;;5050823;28;20033;-74
2022/04/30 06:07:15;;;;;;;0.57;0.57;;;8.20;99.90;;;;;;5034105;28;20048;-74
2022/04/30 06:09:41;;;;;;;0.65;0.65;;;8.20;99.90;;;;;;5044202;28;20087;-74
2022/04/30 06:12:07;;;;;;;0.95;0.95;;;8.20;99.90;;;;;;5030542;28;20041;-74
2022/04/30 06:14:32;;;;;;;0.60;0.60;;;8.30;99.90;;;;;;5011862;28;20052;-74
2022/04/30 06:16:59;;;;;;;1.27;1.17;;;8.40;99.90;;;;;;5013415;28;20505;-74
2022/04/30 06:19:24;;;;;;;0.60;0.60;;;8.50;99.90;;;;;;5044356;28;20041;-74
2022/04/30 06:21:51;;;;;;;2.67;2.35;;;8.70;99.90;;;;;;5028003;28;20109;-74
2022/04/30 06:24:17;;;;;;;2.30;2.10;;;8.80;99.90;;;;;;5035221;28;20045;-74
2022/04/30 06:26:44;;;;;;;1.63;1.52;;;9.00;99.90;;;;;;5034057;28;20103;-74
2022/04/30 06:29:10;;;;;;;0.93;0.93;;;9.10;99.90;;;;;;5034547;28;20128;-74
2022/04/30 06:31:36;;;;;;;2.45;2.28;;;9.20;99.90;;;;;;5033734;28;20044;-74
2022/04/30 06:34:02;;;;;;;13.95;1.45;;;9.30;99.90;;;;;;5050623;28;20052;-74
2022/04/30 06:36:28;;;;;;;1.70;1.25;;;9.50;99.90;;;;;;5018413;28;20041;-74
2022/04/30 06:38:54;;;;;;;1.30;1.25;;;9.60;99.90;;;;;;5017239;28;20044;-74
2022/04/30 06:41:21;;;;;;;0.40;0.40;;;9.60;99.90;;;;;;5011988;28;20045;-74
2022/04/30 06:43:49;;;;;;;0.57;0.57;;;9.60;99.90;;;;;;5014524;28;20292;-74
2022/04/30 06:46:15;;;;;;;0.70;0.70;;;9.70;99.90;;;;;;5015061;28;20041;-74
2022/04/30 06:48:40;;;;;;;1.73;1.52;;;9.70;99.90;;;;;;5014317;28;20080;-74
2022/04/30 06:51:06;;;;;;;7.13;2.22;;;9.80;99.90;;;;;;5028527;28;20095;-74
2022/04/30 06:59:10;;;;;;;1.08;0.95;;;9.90;99.90;;;;;;5033321;28;20599;-74
2022/04/30 07:01:44;;;;;;;0.30;0.30;;;9.90;99.90;;;;;;5020938;28;20037;-74
2022/04/30 07:04:11;;;;;;;0.30;0.30;;;9.90;99.90;;;;;;5014371;28;20049;-74
2022/04/30 07:06:38;;;;;;;0.50;0.50;;;10.00;99.90;;;;;;4997649;28;20049;-74
2022/04/30 07:09:05;;;;;;;3.00;0.95;;;10.00;99.90;;;;;;4998036;28;20470;-74
2022/04/30 07:11:31;;;;;;;0.30;0.30;;;10.10;99.90;;;;;;5013857;28;20528;-74
2022/04/30 07:13:57;;;;;;;0.30;0.30;;;10.30;99.90;;;;;;4997863;28;20041;-74
2022/04/30 07:16:22;;;;;;;1.13;1.02;;;10.40;99.90;;;;;;5014185;28;20405;-74
2022/04/30 07:18:48;;;;;;;1.05;1.00;;;10.50;99.90;;;;;;5014838;28;20040;-74
2022/04/30 07:21:14;;;;;;;13.57;2.58;;;10.50;99.90;;;;;;5003828;28;20053;-74
2022/04/30 07:23:40;;;;;;;0.20;0.20;;;10.60;99.90;;;;;;5025850;28;20049;-74
2022/04/30 07:26:06;;;;;;;1.65;1.23;;;10.60;99.90;;;;;;5031454;28;20069;-74
2022/04/30 07:28:35;;;;;;;0.43;0.43;;;10.60;99.90;;;;;;5032282;28;20128;-74
2022/04/30 07:31:09;;;;;;;0.60;0.60;;;10.70;99.90;;;;;;5008895;28;20090;-74
2022/04/30 07:33:35;;;;;;;0.45;0.45;;;10.70;99.90;;;;;;5015728;28;20076;-74
2022/04/30 07:36:01;;;;;;;0.80;0.70;;;10.80;99.90;;;;;;5009164;28;20128;-74
2022/04/30 07:38:26;;;;;;;0.65;0.65;;;10.80;99.90;;;;;;5026307;28;20040;-74
2022/04/30 07:40:52;;;;;;;1.55;0.73;;;10.80;99.90;;;;;;5029498;28;20090;-75
2022/04/30 07:43:18;;;;;;;0.75;0.75;;;10.80;99.90;;;;;;5030773;28;20056;-74
2022/04/30 07:45:44;;;;;;;0.52;0.52;;;10.80;99.90;;;;;;5028267;28;20041;-74
2022/04/30 07:48:10;;;;;;;0.55;0.55;;;10.80;99.90;;;;;;5029073;28;20040;-74
2022/04/30 07:50:36;;;;;;;1.02;0.63;;;10.80;99.90;;;;;;5012687;28;20416;-74
2022/04/30 07:53:06;;;;;;;0.43;0.43;;;10.80;99.90;;;;;;5026596;28;20506;-74
2022/04/30 07:55:32;;;;;;;1.08;1.05;;;10.80;99.90;;;;;;5053372;28;20438;-74
2022/04/30 07:57:58;;;;;;;0.50;0.50;;;10.90;99.90;;;;;;5025519;28;20098;-73
2022/04/30 08:00:27;;;;;;;0.40;0.40;;;11.00;99.90;;;;;;5022733;28;20041;-74
2022/04/30 08:02:57;;;;;;;14.50;7.55;;;11.10;99.90;;;;;;5019654;28;20145;-73
2022/04/30 08:05:23;;;;;;;0.88;0.88;;;11.20;99.90;;;;;;5024686;28;20111;-73
2022/04/30 08:07:49;;;;;;;0.68;0.57;;;11.20;99.90;;;;;;5024143;28;20052;-74
2022/04/30 08:10:15;;;;;;;0.75;0.75;;;11.40;99.90;;;;;;5027167;28;20043;-73
2022/04/30 08:12:40;;;;;;;0.95;0.90;;;11.50;99.90;;;;;;5033999;28;20041;-74
2022/04/30 08:15:06;;;;;;;0.20;0.20;;;11.60;99.90;;;;;;5013424;28;20124;-74
2022/04/30 08:17:32;;;;;;;0.20;0.20;;;11.60;99.90;;;;;;5023270;28;20450;-73
2022/04/30 08:19:58;;;;;;;0.70;0.70;;;11.70;99.90;;;;;;5032404;28;20511;-74
2022/04/30 08:22:23;;;;;;;0.35;0.35;;;11.70;99.90;;;;;;5037961;28;20136;-74
2022/04/30 08:24:49;;;;;;;3.88;2.22;;;11.90;99.90;;;;;;5017674;28;20087;-73
2022/04/30 08:27:15;;;;;;;0.25;0.25;;;12.00;99.90;;;;;;5012400;28;20052;-73
2022/04/30 08:29:41;;;;;;;0.50;0.50;;;12.00;99.90;;;;;;5002478;28;20041;-74
2022/04/30 08:32:07;;;;;;;0.20;0.20;;;12.10;99.90;;;;;;5014802;28;20045;-74
2022/04/30 08:34:32;;;;;;;3.35;1.85;;;12.20;99.90;;;;;;5028536;28;20405;-73
2022/04/30 08:36:58;;;;;;;0.20;0.20;;;12.30;99.90;;;;;;5009660;28;20175;-74
2022/04/30 08:39:24;;;;;;;1.65;1.05;;;12.20;99.90;;;;;;5028385;28;20052;-73
2022/04/30 08:41:50;;;;;;;1.85;0.98;;;12.40;99.90;;;;;;5032992;28;20041;-74
2022/04/30 08:44:17;;;;;;;3.75;2.38;;;12.60;99.90;;;;;;5026515;28;20044;-73
2022/04/30 08:46:44;;;;;;;0.70;0.63;;;12.60;99.90;;;;;;5029261;28;20512;-73
2022/04/30 08:49:11;;;;;;;1.05;0.95;;;12.60;99.90;;;;;;5015582;28;20045;-74
2022/04/30 08:51:37;;;;;;;1.02;1.02;;;12.50;99.90;;;;;;5002731;28;20057;-74
2022/04/30 08:54:03;;;;;;;1.85;1.00;;;12.70;99.90;;;;;;4993361;28;20069;-74
2022/04/30 08:56:28;;;;;;;1.42;1.20;;;13.10;99.90;;;;;;4995780;28;20484;-74
2022/04/30 08:59:01;;;;;;;0.20;0.20;;;13.40;99.90;;;;;;5013157;28;20041;-74
2022/04/30 09:01:27;;;;;;;0.70;0.70;;;13.60;99.90;;;;;;4991379;28;20053;-74
2022/04/30 09:03:55;;;;;;;0.32;0.32;;;13.90;99.90;;;;;;4976314;28;20050;-74
2022/04/30 09:06:20;;;;;;;0.32;0.32;;;14.10;99.90;;;;;;4992716;28;20081;-74
2022/04/30 09:08:51;;;;;;;0.60;0.60;;;14.30;99.90;;;;;;5005034;28;20037;-74
2022/04/30 09:11:26;;;;;;;0.10;0.10;;;14.80;99.90;;;;;;5011765;28;20535;-74
2022/04/30 09:13:52;;;;;;;0.10;0.10;;;15.30;99.90;;;;;;5011361;28;20045;-74
2022/04/30 09:16:22;;;;;;;2.47;1.35;;;15.70;99.90;;;;;;5012021;28;20045;-74
2022/04/30 09:18:49;;;;;;;0.85;0.85;;;16.00;99.90;;;;;;5020475;28;20041;-74
2022/04/30 09:21:16;;;;;;;0.63;0.63;;;15.80;99.70;;;;;;5048698;28;20393;-74
2022/04/30 09:23:43;;;;;;;0.30;0.30;;;15.80;99.80;;;;;;5029015;28;20492;-74
2022/04/30 09:26:08;;;;;;;1.65;1.15;;;16.00;99.90;;;;;;5011678;28;20068;-74
2022/04/30 09:28:36;;;;;;;2.22;0.80;;;16.00;99.90;;;;;;5012059;28;20060;-74
2022/04/30 09:31:09;;;;;;;0.20;0.20;;;15.90;99.80;;;;;;5010986;28;20081;-74
2022/04/30 09:33:56;;;;;;;0.28;0.28;;;15.70;98.70;;;;;;5008305;28;20042;-74
2022/04/30 09:39:16;;;;;;;0.77;0.77;;;15.80;99.90;;;;;;5011467;28;20042;-74
2022/04/30 09:41:42;;;;;;;0.52;0.52;;;15.70;99.30;;;;;;5028230;28;20386;-73
2022/04/30 09:44:12;;;;;;;1.73;0.80;;;15.40;97.40;;;;;;4994989;28;20037;-74
2022/04/30 09:46:39;;;;;;;0.93;0.93;;;14.90;97.40;;;;;;4995099;28;20440;-74
2022/04/30 09:54:38;;;;;;;2.83;0.85;;;13.80;96.10;;;;;;5010454;28;20057;-73
2022/04/30 09:57:06;;;;;;;0.38;0.38;;;13.50;96.40;;;;;;4994636;28;20124;-73
2022/04/30 09:59:34;;;;;;;0.20;0.20;;;13.30;97.20;;;;;;5010716;28;20041;-73
2022/04/30 10:02:03;;;;;;;0.52;0.52;;;13.10;97.20;;;;;;4992507;28;20478;-73
2022/04/30 10:04:30;;;;;;;0.65;0.65;;;13.00;98.10;;;;;;5010987;28;20041;-73
2022/04/30 10:06:59;;;;;;;0.10;0.10;;;12.90;98.30;;;;;;5011202;28;20045;-73
2022/04/30 10:09:38;;;;;;;0.38;0.38;;;12.80;99.00;;;;;;5011048;28;20048;-73
2022/04/30 10:12:42;;;;;;;1.13;0.80;;;12.70;99.20;;;;;;5009952;28;20056;-74
2022/04/30 10:15:20;;;;;;;0.73;0.73;;;12.50;99.70;;;;;;5010565;28;20064;-74
2022/04/30 10:17:48;;;;;;;1.20;1.20;;;12.40;99.90;;;;;;5010741;28;20041;-74
2022/04/30 10:20:22;;;;;;;0.20;0.20;;;12.20;99.90;;;;;;4991365;28;20038;-73
2022/04/30 10:22:59;;;;;;;0.32;0.32;;;12.10;99.90;;;;;;4990806;28;20572;-74
2022/04/30 10:25:32;;;;;;;0.50;0.50;;;12.00;99.90;;;;;;5027384;28;20045;-73
2022/04/30 10:27:58;;;;;;;2.35;0.52;;;11.90;99.90;;;;;;5009945;28;20140;-73
2022/04/30 10:30:24;;;;;;;1.75;0.88;;;11.90;99.90;;;;;;5010692;28;20560;-74
2022/04/30 10:33:06;;;;;;;0.73;0.68;;;11.90;99.90;;;;;;5006833;28;20044;-74
2022/04/30 10:35:40;;;;;;;2.75;1.23;;;11.90;99.90;;;;;;4975099;28;20049;-73
2022/04/30 10:38:15;;;;;;;0.38;0.38;;;11.80;99.90;;;;;;4974916;28;20042;-73
2022/04/30 10:40:49;;;;;;;0.57;0.57;;;11.70;99.90;;;;;;4991303;28;20053;-73
2022/04/30 10:43:19;;;;;;;2.63;1.00;;;11.70;99.90;;;;;;5003783;28;20188;-73
2022/04/30 10:45:45;;;;;;;0.80;0.80;;;11.70;99.90;;;;;;4987676;28;20450;-73
2022/04/30 10:48:11;;;;;;;0.20;0.20;;;11.80;99.90;;;;;;4974556;28;20065;-73
2022/04/30 10:50:38;;;;;;;0.30;0.30;;;11.70;99.90;;;;;;4980514;28;20057;-73
2022/04/30 10:53:07;;;;;;;0.10;0.10;;;11.70;99.90;;;;;;4998962;28;20040;-73
2022/04/30 10:55:34;;;;;;;0.85;0.80;;;11.70;99.90;;;;;;5010544;28;20037;-73
2022/04/30 10:58:00;;;;;;;2.55;2.35;;;11.70;99.90;;;;;;4994187;28;20056;-73
2022/04/30 11:00:26;;;;;;;0.32;0.32;;;11.60;99.90;;;;;;5006423;28;20049;-73
2022/04/30 11:02:51;;;;;;;4.22;1.80;;;11.60;99.90;;;;;;4991214;28;20084;-73
2022/04/30 11:05:24;;;;;;;0.40;0.40;;;11.50;99.90;;;;;;5022836;28;20960;-73
2022/04/30 11:07:50;;;;;;;1.48;1.38;;;11.50;99.90;;;;;;5010153;28;20061;-72
2022/04/30 11:10:16;;;;;;;0.75;0.70;;;11.50;99.90;;;;;;5012720;28;20046;-73
2022/04/30 11:12:43;;;;;;;0.88;0.85;;;11.40;99.90;;;;;;5013772;28;20102;-73
2022/04/30 11:15:13;;;;;;;1.20;1.10;;;11.30;99.90;;;;;;4995477;28;20037;-73
2022/04/30 11:17:44;;;;;;;1.17;0.90;;;11.30;99.90;;;;;;5013474;28;20492;-73
2022/04/30 11:20:11;;;;;;;1.33;1.23;;;11.20;99.90;;;;;;5013806;28;20041;-73
2022/04/30 11:22:36;;;;;;;2.97;2.10;;;11.00;99.90;;;;;;5013309;28;20048;-73
2022/04/30 11:25:02;;;;;;;1.80;1.40;;;11.10;99.90;;;;;;5002689;28;20041;-73
2022/04/30 11:27:31;;;;;;;0.90;0.90;;;11.10;99.90;;;;;;4978115;28;20394;-73
2022/04/30 11:29:57;;;;;;;2.55;2.17;;;11.10;99.90;;;;;;5003046;28;20046;-73
2022/04/30 11:32:27;;;;;;;0.20;0.20;;;11.10;99.90;;;;;;5000985;28;20041;-73
2022/04/30 11:35:03;;;;;;;1.88;1.55;;;11.10;99.90;;;;;;4996768;28;20037;-73
2022/04/30 11:37:39;;;;;;;2.60;2.05;;;11.10;99.90;;;;;;4987796;28;20056;-73
2022/04/30 11:40:06;;;;;;;2.63;2.25;;;11.10;99.90;;;;;;4987384;28;20042;-72
2022/04/30 11:42:32;;;;;;;2.33;2.05;;;11.10;99.90;;;;;;4994071;28;20052;-73
2022/04/30 11:44:58;;;;;;;15.02;1.83;;;11.20;99.90;;;;;;4994695;28;20437;-73
2022/04/30 11:47:24;;;;;;;1.70;1.30;;;11.20;99.90;;;;;;4985959;28;20042;-72
2022/04/30 11:50:02;;;;;;;3.15;2.47;;;11.30;99.90;;;;;;4996593;28;20145;-72
2022/04/30 11:52:27;;;;;;;0.85;0.85;;;11.30;99.90;;;;;;5030286;28;20424;-73
2022/04/30 11:54:53;;;;;;;0.20;0.20;;;11.30;99.90;;;;;;5033051;28;20033;-73
2022/04/30 11:57:19;;;;;;;0.60;0.60;;;11.20;99.90;;;;;;5016829;28;20095;-73
2022/04/30 11:59:44;;;;;;;7.53;2.35;;;11.30;99.90;;;;;;5015705;28;20044;-73
2022/04/30 12:02:12;;;;;;;1.73;1.63;;;11.40;99.90;;;;;;5016494;28;20511;-73
2022/04/30 12:04:41;;;;;;;0.40;0.40;;;11.50;99.90;;;;;;5016690;28;20120;-73
2022/04/30 12:07:08;;;;;;;0.50;0.50;;;11.60;99.90;;;;;;5016511;28;20063;-73
2022/04/30 12:09:37;;;;;;;8.48;2.58;;;11.70;99.90;;;;;;5012589;28;20096;-73
2022/04/30 12:12:16;;;;;;;0.30;0.30;;;11.90;99.90;;;;;;4996303;28;20041;-73
2022/04/30 12:14:59;;;;;;;1.65;1.45;;;11.90;99.90;;;;;;4996475;28;20081;-73
2022/04/30 12:17:30;;;;;;;2.33;1.80;;;12.00;99.90;;;;;;5020194;28;20036;-73
2022/04/30 12:25:46;;;;;;;4.75;0.80;;;12.00;99.90;;;;;;5012855;28;20490;-73
2022/04/30 12:28:12;;;;;;;0.65;0.60;;;12.00;99.90;;;;;;5021454;28;20090;-73
2022/04/30 12:30:49;;;;;;;5.13;2.33;;;12.00;99.90;;;;;;5016028;28;20159;-73
2022/04/30 12:33:15;;;;;;;2.17;1.27;;;12.00;99.90;;;;;;5049014;28;20501;-73
2022/04/30 12:35:41;;;;;;;0.40;0.40;;;12.10;99.90;;;;;;5032000;28;20043;-73
2022/04/30 12:38:08;;;;;;;0.95;0.95;;;12.20;99.90;;;;;;5015242;28;20100;-73
2022/04/30 12:40:39;;;;;;;0.75;0.75;;;12.20;99.90;;;;;;5011731;28;20083;-73
2022/04/30 12:43:06;;;;;;;11.50;2.60;;;12.20;99.90;;;;;;4996306;28;20528;-73
2022/04/30 12:45:33;;;;;;;2.22;1.75;;;12.20;99.90;;;;;;4996283;28;20132;-73
2022/04/30 12:47:59;;;;;;;2.58;2.38;;;12.30;99.90;;;;;;5026855;28;20060;-73
2022/04/30 12:50:25;;;;;;;0.20;0.20;;;12.30;99.90;;;;;;5015337;28;20061;-73
2022/04/30 12:52:52;;;;;;;0.32;0.32;;;12.30;99.90;;;;;;5048966;28;20053;-73
2022/04/30 12:55:18;;;;;;;0.50;0.50;;;12.30;99.90;;;;;;5011806;28;20440;-73
2022/04/30 12:57:45;;;;;;;2.47;1.50;;;12.30;99.90;;;;;;5012233;28;20041;-73
2022/04/30 13:00:12;;;;;;;0.65;0.65;;;12.30;99.90;;;;;;5028819;28;20087;-73
2022/04/30 13:02:39;;;;;;;2.20;0.73;;;12.20;99.90;;;;;;5031282;28;20401;-73
2022/04/30 13:05:09;;;;;;;0.40;0.40;;;12.20;99.90;;;;;;5015159;28;20056;-73
2022/04/30 13:07:39;;;;;;;0.15;0.15;;;12.20;99.90;;;;;;5031406;28;20067;-73
2022/04/30 13:15:38;;;;;;;0.10;0.10;;;12.10;99.90;;;;;;5011901;28;20461;-73
2022/04/30 13:18:04;;;;;;;4.07;1.40;;;12.10;99.90;;;;;;4996408;28;20089;-73
2022/04/30 13:20:30;;;;;;;0.35;0.30;;;12.10;99.90;;;;;;5022678;28;20459;-73
2022/04/30 13:22:59;;;;;;;0.35;0.35;;;12.00;99.90;;;;;;5014960;28;20037;-73
2022/04/30 13:25:26;;;;;;;0.17;0.17;;;12.00;99.90;;;;;;5047344;28;20042;-73
2022/04/30 13:27:52;;;;;;;0.10;0.10;;;12.10;99.90;;;;;;5031037;28;20493;-73
2022/04/30 13:30:18;;;;;;;8.35;1.58;;;12.10;99.90;;;;;;5014437;28;20060;-73
2022/04/30 13:32:50;;;;;;;0.15;0.15;;;12.10;99.90;;;;;;5029931;28;20044;-73
2022/04/30 13:35:17;;;;;;;3.20;0.63;;;12.00;99.90;;;;;;5043108;28;20543;-73
2022/04/30 13:37:43;;;;;;;0.20;0.20;;;11.90;99.90;;;;;;5020349;28;20045;-73
2022/04/30 13:40:11;;;;;;;0.63;0.60;;;11.90;99.90;;;;;;5017424;28;20047;-73